Time;durP1;ratioP1;P1;durP2;ratioP2;P2;SDS_P1;SDS_P2;PMS_P1;PMS_P2;Temp;Humidity;BMP_temperature;BMP_pressure;BME280_temperature;BME280_humidity;BME280_pressure;Samples;Min_cycle;Max_cycle;Signal;HPM_P1;HPM_P2
2021/09/04 00:02:26;;;;;;;1.63;1.10;;;;;;;9.16;74.45;98251.84;5125367;28;20035;-63
2021/09/04 00:05:12;;;;;;;4.85;1.33;;;;;;;9.21;72.80;98264.63;5111933;28;20027;-65
2021/09/04 00:07:58;;;;;;;6.55;1.50;;;;;;;9.22;72.25;98263.69;5124630;28;20194;-64
2021/09/04 00:10:44;;;;;;;1.90;1.30;;;;;;;8.97;73.18;98255.16;5124921;28;20284;-65
2021/09/04 00:13:30;;;;;;;2.15;1.10;;;;;;;9.10;73.13;98275.34;5123970;28;20034;-65
2021/09/04 00:16:16;;;;;;;3.03;1.20;;;;;;;8.87;72.85;98243.50;5123956;28;20023;-64
2021/09/04 00:19:02;;;;;;;1.65;1.40;;;;;;;9.17;74.28;98288.88;5122971;28;20023;-64
2021/09/04 00:21:48;;;;;;;1.60;1.30;;;;;;;9.04;74.06;98278.16;5122791;28;20094;-64
2021/09/04 00:24:33;;;;;;;3.25;1.40;;;;;;;9.20;72.14;98291.34;5123783;28;20359;-64
2021/09/04 00:27:19;;;;;;;2.53;1.02;;;;;;;9.22;72.76;98292.09;5124904;28;20015;-64
2021/09/04 00:30:06;;;;;;;3.20;1.60;;;;;;;9.02;72.77;98290.28;5123407;28;20028;-64
2021/09/04 00:32:52;;;;;;;3.40;1.67;;;;;;;9.09;72.75;98296.91;5124263;28;20023;-63
2021/09/04 00:35:38;;;;;;;2.40;1.65;;;;;;;9.19;72.60;98310.31;5124070;28;20024;-64
2021/09/04 00:38:24;;;;;;;3.95;1.95;;;;;;;9.03;72.16;98303.13;5123089;28;20053;-65
2021/09/04 00:41:09;;;;;;;3.10;1.55;;;;;;;9.10;73.36;98296.84;5123944;28;20039;-64
2021/09/04 00:43:55;;;;;;;2.45;1.50;;;;;;;9.14;74.42;98302.75;5124849;28;20030;-63
2021/09/04 00:46:42;;;;;;;1.80;1.70;;;;;;;9.10;73.83;98312.34;5123598;28;20247;-64
2021/09/04 00:49:28;;;;;;;4.22;1.67;;;;;;;9.13;74.07;98306.22;5122822;28;20325;-64
2021/09/04 00:52:14;;;;;;;1.90;1.50;;;;;;;9.06;72.99;98300.44;5122546;28;20020;-65
2021/09/04 00:55:01;;;;;;;11.45;1.67;;;;;;;9.19;73.71;98311.13;5123007;28;20208;-65
2021/09/04 00:57:47;;;;;;;2.28;1.30;;;;;;;9.10;72.33;98303.75;5119384;28;20321;-64
2021/09/04 01:00:33;;;;;;;2.10;1.38;;;;;;;9.12;73.94;98317.44;5122193;28;20258;-65
2021/09/04 01:03:19;;;;;;;1.30;1.20;;;;;;;7.89;72.55;98150.72;5124246;28;20373;-64
2021/09/04 01:06:05;;;;;;;2.03;1.40;;;;;;;9.02;72.38;98326.44;5122600;28;20091;-65
2021/09/04 01:08:51;;;;;;;2.88;1.35;;;;;;;9.09;73.74;98327.88;5122948;28;20229;-65
2021/09/04 01:11:37;;;;;;;3.60;1.50;;;;;;;9.10;71.54;98335.56;5124595;28;20030;-65
2021/09/04 01:14:23;;;;;;;1.60;1.38;;;;;;;9.07;72.86;98334.88;5122420;28;20045;-63
2021/09/04 01:17:09;;;;;;;1.42;1.20;;;;;;;9.12;73.46;98333.78;5123011;28;20024;-64
2021/09/04 01:19:55;;;;;;;1.52;1.40;;;;;;;9.02;72.84;98332.47;5123482;28;20023;-64
2021/09/04 01:22:40;;;;;;;1.45;1.35;;;;;;;8.98;72.23;98330.88;5123274;28;20040;-64
2021/09/04 01:25:29;;;;;;;2.15;1.42;;;;;;;9.00;72.15;98334.25;5122160;28;20028;-65
2021/09/04 01:28:15;;;;;;;2.42;1.30;;;;;;;9.08;72.64;98345.13;5123912;28;20039;-65
2021/09/04 01:31:02;;;;;;;1.50;1.40;;;;;;;9.02;72.23;98342.78;5106267;28;20249;-66
2021/09/04 01:33:47;;;;;;;1.85;1.73;;;;;;;9.07;72.39;98340.03;5105240;28;20023;-65
2021/09/04 01:36:36;;;;;;;2.65;1.60;;;;;;;8.77;72.98;98281.72;5123361;28;20031;-63
2021/09/04 01:39:22;;;;;;;1.55;1.20;;;;;;;9.12;72.38;98346.72;5122948;28;20088;-64
2021/09/04 01:42:08;;;;;;;1.40;1.30;;;;;;;9.04;72.95;98348.72;5123912;28;20023;-64
2021/09/04 01:44:54;;;;;;;2.38;1.80;;;;;;;9.05;72.47;98341.81;5123731;28;20223;-64
2021/09/04 01:47:40;;;;;;;1.60;1.50;;;;;;;8.90;72.05;98351.81;5122395;28;20204;-64
2021/09/04 01:50:26;;;;;;;1.77;1.65;;;;;;;9.01;73.07;98341.09;5124083;27;20023;-64
2021/09/04 01:53:12;;;;;;;3.47;1.65;;;;;;;9.15;72.04;98351.75;5123813;28;20346;-65
2021/09/04 01:56:00;;;;;;;1.38;1.27;;;;;;;9.18;73.56;98344.78;5123341;28;20016;-64
2021/09/04 01:58:47;;;;;;;1.83;1.38;;;;;;;9.17;72.53;98354.28;5122109;28;20022;-65
2021/09/04 02:01:32;;;;;;;2.03;1.83;;;;;;;9.22;73.49;98347.22;5121795;28;20030;-65
2021/09/04 02:04:18;;;;;;;1.60;1.50;;;;;;;9.11;73.38;98354.50;5122598;28;20335;-66
2021/09/04 02:07:04;;;;;;;2.10;1.75;;;;;;;9.09;72.53;98352.00;5116855;28;20193;-64
2021/09/04 02:09:50;;;;;;;5.78;1.50;;;;;;;9.10;73.39;98360.56;5112149;28;20019;-65
2021/09/04 02:12:36;;;;;;;3.38;1.63;;;;;;;9.19;73.23;98357.63;5123454;28;20023;-64
2021/09/04 02:15:23;;;;;;;2.20;1.45;;;;;;;9.10;73.43;98351.06;5122695;28;20024;-64
2021/09/04 02:18:09;;;;;;;3.38;1.88;;;;;;;9.08;72.10;98350.31;5121440;28;20019;-64
2021/09/04 02:20:56;;;;;;;1.75;1.50;;;;;;;9.10;72.99;98358.00;5121930;28;20031;-65
2021/09/04 02:23:42;;;;;;;1.65;1.40;;;;;;;9.07;73.39;98353.78;5122653;28;20071;-65
2021/09/04 02:26:28;;;;;;;2.38;1.50;;;;;;;9.03;73.07;98344.44;5116761;28;20032;-64
2021/09/04 02:29:13;;;;;;;3.45;1.60;;;;;;;9.09;71.63;98370.06;5121170;28;20031;-65
2021/09/04 02:32:00;;;;;;;2.90;1.15;;;;;;;8.97;71.33;98344.69;5120855;28;20228;-65
2021/09/04 02:34:46;;;;;;;3.30;1.75;;;;;;;9.02;72.61;98370.34;5117171;28;20011;-65
2021/09/04 02:37:32;;;;;;;3.05;1.30;;;;;;;9.05;72.21;98376.25;5106175;28;20140;-65
2021/09/04 02:40:18;;;;;;;3.35;1.50;;;;;;;9.09;73.03;98362.31;5121609;28;20098;-66
2021/09/04 02:43:04;;;;;;;1.67;1.58;;;;;;;9.00;72.52;98367.81;5122415;28;20035;-65
2021/09/04 02:45:50;;;;;;;1.80;1.60;;;;;;;9.11;72.91;98370.00;5121959;28;20019;-66
2021/09/04 02:48:36;;;;;;;2.05;1.42;;;;;;;9.06;72.60;98383.06;5121693;28;20336;-67
2021/09/04 02:51:22;;;;;;;1.95;1.27;;;;;;;8.97;72.50;98370.50;5121400;28;20259;-65
2021/09/04 02:54:09;;;;;;;1.48;1.38;;;;;;;9.10;71.56;98376.06;5120764;28;20027;-65
2021/09/04 02:56:55;;;;;;;4.00;1.50;;;;;;;9.11;72.84;98385.50;5120890;28;20020;-65
2021/09/04 02:59:40;;;;;;;1.83;1.73;;;;;;;9.05;72.32;98386.56;5118877;28;20024;-66
2021/09/04 03:02:26;;;;;;;2.83;1.45;;;;;;;8.84;72.10;98371.84;5099967;28;20038;-67
2021/09/04 03:05:12;;;;;;;1.33;1.23;;;;;;;9.03;71.80;98379.78;5120729;28;20019;-65
2021/09/04 03:07:58;;;;;;;1.48;1.38;;;;;;;9.18;72.19;98388.69;5119519;28;20039;-65
2021/09/04 03:10:44;;;;;;;1.80;1.60;;;;;;;9.11;73.00;98391.50;5117841;28;20111;-65
2021/09/04 03:13:30;;;;;;;2.45;1.98;;;;;;;8.88;72.39;98366.53;5120573;28;20036;-64
2021/09/04 03:16:16;;;;;;;1.50;1.40;;;;;;;9.12;73.37;98398.38;5120182;28;20024;-64
2021/09/04 03:19:02;;;;;;;2.03;1.42;;;;;;;8.98;72.77;98385.09;5120470;28;20023;-63
2021/09/04 03:21:48;;;;;;;1.60;1.50;;;;;;;8.97;72.14;98404.06;5124616;28;20327;-64
2021/09/04 03:24:35;;;;;;;1.80;1.70;;;;;;;9.02;71.96;98407.34;5125370;28;20312;-64
2021/09/04 03:27:21;;;;;;;1.45;1.35;;;;;;;9.03;73.13;98398.69;5117190;28;20031;-65
2021/09/04 03:30:09;;;;;;;1.60;1.50;;;;;;;9.04;73.33;98412.44;5108815;28;20023;-65
2021/09/04 03:32:54;;;;;;;1.50;1.40;;;;;;;9.08;72.90;98416.63;5125406;28;20015;-64
2021/09/04 03:35:40;;;;;;;2.45;1.88;;;;;;;9.00;73.37;98423.78;5125295;28;20324;-65
2021/09/04 03:38:27;;;;;;;4.15;1.98;;;;;;;9.04;73.63;98425.38;5124175;28;20031;-65
2021/09/04 03:41:13;;;;;;;3.20;1.88;;;;;;;9.01;73.51;98425.44;5123864;28;20015;-64
2021/09/04 03:43:59;;;;;;;1.77;1.65;;;;;;;9.00;73.67;98434.94;5124617;28;20019;-64
2021/09/04 03:46:44;;;;;;;1.83;1.60;;;;;;;9.06;72.27;98434.72;5113452;27;20270;-65
2021/09/04 03:49:31;;;;;;;2.40;1.63;;;;;;;8.98;73.57;98441.91;5123156;28;20035;-64
2021/09/04 03:52:17;;;;;;;1.88;1.60;;;;;;;9.06;72.79;98436.47;5124900;28;20274;-65
2021/09/04 03:55:03;;;;;;;1.63;1.50;;;;;;;9.06;73.63;98439.88;5124241;28;20068;-64
2021/09/04 03:57:49;;;;;;;2.65;1.70;;;;;;;9.02;73.09;98438.34;5115755;28;20015;-64
2021/09/04 04:00:35;;;;;;;3.17;1.88;;;;;;;9.07;72.92;98446.75;5122762;28;20039;-65
2021/09/04 04:03:22;;;;;;;2.70;1.90;;;;;;;9.01;73.05;98446.09;5125020;28;20246;-65
2021/09/04 04:06:08;;;;;;;2.38;2.13;;;;;;;9.14;73.24;98455.13;5119472;28;20019;-65
2021/09/04 04:08:55;;;;;;;2.45;1.90;;;;;;;9.17;74.33;98460.19;5125358;28;20043;-65
2021/09/04 04:11:41;;;;;;;2.65;2.15;;;;;;;9.28;72.92;98455.47;5123069;28;20046;-66
2021/09/04 04:14:27;;;;;;;2.58;2.05;;;;;;;9.31;72.44;98464.84;5107549;28;20036;-65
2021/09/04 04:17:13;;;;;;;4.53;2.33;;;;;;;9.22;72.58;98458.28;5124487;28;20022;-65
2021/09/04 04:19:59;;;;;;;2.60;2.35;;;;;;;9.19;73.58;98465.28;5124077;28;20110;-65
2021/09/04 04:22:44;;;;;;;2.42;2.22;;;;;;;9.24;73.42;98468.56;5123266;28;20035;-65
2021/09/04 04:25:30;;;;;;;2.80;2.30;;;;;;;9.14;74.80;98466.28;5121925;28;20090;-65
2021/09/04 04:28:17;;;;;;;2.10;1.90;;;;;;;9.12;74.53;98470.69;5124896;28;20019;-66
2021/09/04 04:31:03;;;;;;;2.50;2.30;;;;;;;9.21;76.54;98479.84;5123147;28;20059;-66
2021/09/04 04:33:49;;;;;;;2.50;2.15;;;;;;;9.02;75.49;98481.38;5122827;28;20024;-66
2021/09/04 04:36:35;;;;;;;3.45;2.50;;;;;;;9.04;76.56;98480.44;5123019;28;20058;-66
2021/09/04 04:39:21;;;;;;;2.45;2.25;;;;;;;9.10;76.05;98485.38;5123822;27;20084;-66
2021/09/04 04:42:07;;;;;;;2.45;2.25;;;;;;;9.08;75.66;98494.09;5122151;28;20035;-66
2021/09/04 04:44:52;;;;;;;2.30;2.10;;;;;;;9.09;77.57;98485.44;5123288;28;20030;-65
2021/09/04 04:47:38;;;;;;;2.28;2.17;;;;;;;9.20;76.17;98496.22;5123286;28;20060;-66
2021/09/04 04:50:24;;;;;;;3.95;2.17;;;;;;;9.12;75.72;98493.06;5101457;28;20082;-67
2021/09/04 04:53:11;;;;;;;2.67;1.88;;;;;;;9.23;74.70;98493.53;5123065;28;20095;-66
2021/09/04 04:55:59;;;;;;;2.53;2.08;;;;;;;9.10;76.49;98477.63;5123743;28;20031;-67
2021/09/04 04:58:45;;;;;;;2.42;2.10;;;;;;;9.25;76.64;98501.22;5119651;28;20032;-66
2021/09/04 05:01:31;;;;;;;4.63;1.80;;;;;;;9.22;76.27;98496.16;5122977;28;20331;-67
2021/09/04 05:04:17;;;;;;;7.55;2.38;;;;;;;9.10;78.15;98513.78;5123704;28;20102;-67
2021/09/04 05:07:03;;;;;;;4.10;2.20;;;;;;;9.08;78.54;98518.16;5107417;28;20039;-65
2021/09/04 05:09:49;;;;;;;3.40;1.98;;;;;;;9.20;77.48;98522.06;5106999;28;20071;-67
2021/09/04 05:12:35;;;;;;;2.47;2.25;;;;;;;8.94;76.71;98476.50;5122479;28;20065;-65
2021/09/04 05:15:21;;;;;;;2.67;2.10;;;;;;;9.24;78.24;98520.22;5122775;28;20023;-66
2021/09/04 05:18:07;;;;;;;2.63;1.60;;;;;;;9.21;76.77;98520.34;5107474;28;20023;-66
2021/09/04 05:20:53;;;;;;;2.35;2.15;;;;;;;9.27;77.55;98514.94;5124097;28;20053;-68
2021/09/04 05:23:38;;;;;;;2.03;1.83;;;;;;;9.28;78.13;98514.06;5123789;28;20031;-67
2021/09/04 05:26:24;;;;;;;1.98;1.60;;;;;;;9.31;78.20;98509.59;5121711;28;20039;-66
2021/09/04 05:29:10;;;;;;;3.28;2.10;;;;;;;9.48;76.97;98514.19;5123618;28;20023;-67
2021/09/04 05:31:56;;;;;;;2.50;2.00;;;;;;;9.59;76.86;98529.31;5095202;28;20561;-67
2021/09/04 05:34:42;;;;;;;2.83;1.75;;;;;;;9.57;78.07;98527.66;5122982;28;20222;-67
2021/09/04 05:37:28;;;;;;;2.97;2.00;;;;;;;9.60;77.04;98536.13;5123559;28;20024;-66
2021/09/04 05:40:14;;;;;;;2.08;1.88;;;;;;;9.63;76.90;98545.53;5121835;28;20020;-66
2021/09/04 05:43:00;;;;;;;4.15;1.75;;;;;;;9.50;74.78;98547.72;5122328;28;20059;-66
2021/09/04 05:45:46;;;;;;;2.97;1.73;;;;;;;9.29;75.18;98536.38;5122163;28;20023;-67
2021/09/04 05:48:32;;;;;;;2.22;1.65;;;;;;;9.16;76.44;98538.56;5115918;27;20070;-67
2021/09/04 05:51:18;;;;;;;1.48;1.35;;;;;;;9.14;76.41;98554.09;5113680;28;20020;-69
2021/09/04 05:54:04;;;;;;;1.90;1.70;;;;;;;9.02;75.20;98551.97;5122475;28;20324;-67
2021/09/04 05:56:49;;;;;;;1.58;1.48;;;;;;;9.14;74.65;98564.44;5121190;28;20024;-67
2021/09/04 05:59:35;;;;;;;2.90;1.55;;;;;;;9.00;76.50;98525.31;5121683;28;20027;-67
2021/09/04 06:02:21;;;;;;;1.75;1.40;;;;;;;9.20;76.27;98568.56;5117430;28;20039;-67
2021/09/04 06:05:07;;;;;;;3.25;1.65;;;;;;;9.25;76.80;98574.41;5121269;28;20222;-67
2021/09/04 06:07:53;;;;;;;3.40;1.83;;;;;;;9.38;77.25;98573.97;5121287;28;20030;-67
2021/09/04 06:10:40;;;;;;;4.93;1.80;;;;;;;9.35;79.00;98576.66;5121055;28;20032;-67
2021/09/04 06:13:26;;;;;;;4.82;2.53;;;;;;;9.43;79.23;98572.91;5120746;28;20019;-66
2021/09/04 06:16:12;;;;;;;3.95;2.15;;;;;;;9.49;78.41;98577.91;5121356;28;20051;-66
2021/09/04 06:18:58;;;;;;;2.72;2.03;;;;;;;9.59;75.32;98572.38;5122560;28;20051;-66
2021/09/04 06:21:43;;;;;;;3.90;1.70;;;;;;;9.49;76.47;98572.72;5121120;28;20317;-71
2021/09/04 06:24:29;;;;;;;3.70;2.17;;;;;;;9.60;78.45;98572.31;5120109;28;20228;-65
2021/09/04 06:27:15;;;;;;;2.90;1.80;;;;;;;9.67;76.58;98575.56;5121506;28;20027;-66
2021/09/04 06:30:03;;;;;;;2.58;1.70;;;;;;;9.62;76.01;98552.47;5121835;28;20339;-67
2021/09/04 06:32:49;;;;;;;3.42;1.73;;;;;;;9.66;73.16;98566.09;5120435;28;20313;-66
2021/09/04 06:35:35;;;;;;;2.75;2.10;;;;;;;9.59;73.47;98570.66;5120824;28;20256;-66
2021/09/04 06:38:21;;;;;;;5.53;4.25;;;;;;;9.81;73.81;98573.31;5120989;28;20081;-67
2021/09/04 06:41:07;;;;;;;3.60;2.25;;;;;;;9.89;74.96;98564.41;5120578;28;20332;-66
2021/09/04 06:43:54;;;;;;;5.63;2.00;;;;;;;9.86;76.08;98562.78;5105264;28;20340;-65
2021/09/04 06:46:40;;;;;;;2.67;1.98;;;;;;;9.93;74.54;98578.94;5121376;28;20331;-65
2021/09/04 06:49:25;;;;;;;2.40;2.08;;;;;;;10.04;76.50;98583.72;5121004;28;20034;-65
2021/09/04 06:52:11;;;;;;;2.30;2.00;;;;;;;9.79;75.01;98556.16;5121185;28;20223;-68
2021/09/04 06:54:57;;;;;;;7.03;3.10;;;;;;;9.97;75.09;98578.75;5120940;28;20106;-65
2021/09/04 06:57:43;;;;;;;4.43;1.88;;;;;;;10.02;73.98;98569.09;5121222;28;20320;-64
2021/09/04 07:00:29;;;;;;;4.20;2.10;;;;;;;10.15;72.31;98563.47;5106422;28;20285;-63
2021/09/04 07:03:15;;;;;;;3.33;2.30;;;;;;;10.29;72.20;98573.25;5120295;28;20027;-65
2021/09/04 07:06:01;;;;;;;2.00;1.85;;;;;;;10.08;70.16;98569.78;5119596;28;20031;-63
2021/09/04 07:08:46;;;;;;;2.60;2.08;;;;;;;10.13;70.43;98571.28;5120888;28;20027;-62
2021/09/04 07:11:32;;;;;;;4.18;2.20;;;;;;;10.27;69.93;98575.91;5120200;28;20032;-64
2021/09/04 07:14:18;;;;;;;2.40;2.20;;;;;;;10.59;68.20;98576.47;5120117;28;20047;-65
2021/09/04 07:17:04;;;;;;;7.15;3.03;;;;;;;10.80;68.62;98574.75;5106617;28;20087;-64
2021/09/04 07:19:50;;;;;;;2.55;2.13;;;;;;;10.77;67.42;98574.88;5121140;28;20039;-64
2021/09/04 07:22:36;;;;;;;3.95;1.95;;;;;;;10.76;66.60;98578.38;5120988;28;20099;-64
2021/09/04 07:25:22;;;;;;;4.40;2.33;;;;;;;10.70;68.29;98581.19;5121157;28;20020;-64
2021/09/04 07:28:08;;;;;;;3.58;1.75;;;;;;;10.59;66.31;98568.69;5121654;28;20020;-65
2021/09/04 07:30:54;;;;;;;5.20;1.95;;;;;;;10.66;66.66;98583.06;5120051;28;20373;-63
2021/09/04 07:33:40;;;;;;;5.28;2.00;;;;;;;10.72;67.95;98576.81;5120054;28;20254;-63
2021/09/04 07:36:25;;;;;;;3.67;2.00;;;;;;;10.76;66.21;98565.44;5120541;28;20016;-64
2021/09/04 07:39:11;;;;;;;2.75;2.00;;;;;;;10.77;66.00;98586.97;5118172;28;20379;-63
2021/09/04 07:41:57;;;;;;;2.17;1.98;;;;;;;10.47;66.36;98592.47;5129464;28;20282;-63
2021/09/04 07:44:43;;;;;;;3.85;2.13;;;;;;;10.12;69.16;98589.47;5120740;28;20024;-64
2021/09/04 07:47:29;;;;;;;2.95;2.33;;;;;;;10.25;71.59;98605.38;5114308;28;20068;-66
2021/09/04 07:50:15;;;;;;;4.97;2.10;;;;;;;10.15;71.40;98602.28;5120462;28;20057;-66
2021/09/04 07:53:01;;;;;;;4.28;1.95;;;;;;;10.27;71.14;98608.72;5120517;28;20035;-66
2021/09/04 07:55:47;;;;;;;5.82;2.17;;;;;;;10.42;71.88;98615.06;5120710;28;20107;-66
2021/09/04 07:58:34;;;;;;;2.28;1.70;;;;;;;10.38;71.49;98593.66;5117040;28;20335;-64
2021/09/04 08:01:20;;;;;;;3.13;1.75;;;;;;;10.40;73.01;98611.72;5114549;28;20090;-65
2021/09/04 08:04:06;;;;;;;1.77;1.60;;;;;;;10.47;70.53;98618.34;5121551;28;20016;-65
2021/09/04 08:06:52;;;;;;;4.57;1.77;;;;;;;10.47;70.37;98611.41;5120235;28;20031;-65
2021/09/04 08:09:37;;;;;;;2.78;2.25;;;;;;;10.48;72.72;98615.69;5124278;28;20061;-65
2021/09/04 08:12:23;;;;;;;2.90;1.58;;;;;;;10.42;70.28;98612.50;5124619;28;20141;-64
2021/09/04 08:15:10;;;;;;;1.88;1.60;;;;;;;10.59;71.13;98611.84;5123256;28;20035;-64
2021/09/04 08:17:56;;;;;;;2.55;1.58;;;;;;;10.73;69.82;98613.91;5124518;28;20094;-63
2021/09/04 08:20:43;;;;;;;3.15;1.60;;;;;;;10.85;67.32;98600.47;5123877;28;20212;-64
2021/09/04 08:23:28;;;;;;;2.00;1.50;;;;;;;10.86;68.49;98605.59;5109904;28;20058;-63
2021/09/04 08:26:14;;;;;;;3.25;1.75;;;;;;;10.74;68.05;98603.47;5123609;28;20015;-64
2021/09/04 08:29:00;;;;;;;5.70;1.70;;;;;;;10.97;68.82;98605.13;5122927;28;20031;-64
2021/09/04 08:31:46;;;;;;;3.20;1.52;;;;;;;11.11;67.47;98603.75;5123384;28;20054;-64
2021/09/04 08:34:32;;;;;;;3.35;1.75;;;;;;;11.01;68.65;98600.69;5109008;28;20070;-65
2021/09/04 08:37:18;;;;;;;3.90;1.90;;;;;;;10.80;65.08;98610.16;5135864;27;20031;-65
2021/09/04 08:40:04;;;;;;;1.83;1.30;;;;;;;10.98;64.43;98613.78;5124338;28;20073;-64
2021/09/04 08:42:51;;;;;;;4.38;1.75;;;;;;;10.55;62.71;98598.19;5122379;28;20245;-63
2021/09/04 08:45:37;;;;;;;2.85;1.60;;;;;;;10.76;63.28;98624.13;5124015;28;20024;-66
2021/09/04 08:48:23;;;;;;;3.05;1.42;;;;;;;10.91;65.83;98630.47;5123293;28;20035;-64
2021/09/04 08:51:09;;;;;;;3.00;1.63;;;;;;;10.90;66.06;98629.59;5121855;28;20126;-64
2021/09/04 08:53:56;;;;;;;3.17;1.30;;;;;;;10.78;67.20;98653.41;5107526;28;20182;-64
2021/09/04 08:56:42;;;;;;;3.92;1.50;;;;;;;10.55;69.77;98631.84;5116941;28;20027;-66
2021/09/04 08:59:28;;;;;;;2.72;1.30;;;;;;;10.42;70.56;98652.19;5116643;28;20047;-65
2021/09/04 09:02:13;;;;;;;2.53;1.20;;;;;;;10.49;70.79;98657.97;5122607;28;20089;-65
2021/09/04 09:05:04;;;;;;;2.60;1.42;;;;;;;10.61;71.81;98651.47;5123916;28;20036;-66
2021/09/04 09:07:50;;;;;;;2.85;1.55;;;;;;;10.58;73.40;98646.41;5123564;27;20020;-65
2021/09/04 09:10:37;;;;;;;2.17;1.40;;;;;;;10.43;73.03;98621.94;5123359;28;20023;-66
2021/09/04 09:13:23;;;;;;;3.80;1.63;;;;;;;11.00;72.35;98651.66;5123110;28;20047;-66
2021/09/04 09:16:17;;;;;;;6.60;1.80;;;;;;;11.33;71.75;98647.75;5123417;28;20356;-66
2021/09/04 09:19:04;;;;;;;2.42;1.70;;;;;;;11.32;72.69;98589.06;5121020;28;20043;-66
2021/09/04 09:21:51;;;;;;;2.78;1.70;;;;;;;11.46;69.56;98632.53;5123350;28;20215;-66
2021/09/04 09:24:36;;;;;;;3.47;1.90;;;;;;;11.80;70.31;98646.66;5122381;28;20020;-66
2021/09/04 09:27:22;;;;;;;3.20;1.15;;;;;;;12.01;68.50;98635.34;5113479;28;20329;-64
2021/09/04 09:30:09;;;;;;;1.70;1.00;;;;;;;11.97;65.26;98640.75;5123588;28;20185;-64
2021/09/04 09:32:54;;;;;;;2.60;1.00;;;;;;;12.16;63.60;98626.06;5122312;28;20031;-66
2021/09/04 09:35:42;;;;;;;0.73;0.60;;;;;;;12.11;60.67;98630.59;5122921;28;20023;-66
2021/09/04 09:38:30;;;;;;;1.45;0.70;;;;;;;11.90;63.76;98596.91;5119692;28;20031;-65
2021/09/04 09:41:16;;;;;;;1.48;1.38;;;;;;;12.24;63.08;98629.16;5122985;28;20039;-64
2021/09/04 09:44:16;;;;;;;2.70;1.65;;;;;;;12.12;61.19;98621.91;5108508;28;20054;-65
2021/09/04 09:47:10;;;;;;;0.73;0.73;;;;;;;12.23;60.69;98644.78;5119462;28;20043;-64
2021/09/04 09:49:56;;;;;;;4.20;0.93;;;;;;;12.24;59.30;98636.94;5119992;28;20031;-64
2021/09/04 09:52:43;;;;;;;1.15;0.82;;;;;;;12.36;61.91;98642.50;5120831;28;20346;-66
2021/09/04 09:55:30;;;;;;;0.90;0.90;;;;;;;12.30;58.84;98633.22;5121893;28;20019;-64
2021/09/04 09:58:17;;;;;;;3.17;0.80;;;;;;;12.30;61.70;98645.34;5120892;28;20028;-65
2021/09/04 10:01:03;;;;;;;1.30;1.02;;;;;;;12.12;60.62;98632.28;5120160;28;20015;-64
2021/09/04 10:03:50;;;;;;;1.33;0.80;;;;;;;12.22;61.58;98656.91;5122150;28;20027;-65
2021/09/04 10:06:36;;;;;;;3.10;0.90;;;;;;;11.69;62.87;98673.06;5121534;28;20023;-67
2021/09/04 10:09:24;;;;;;;2.38;0.82;;;;;;;11.53;65.88;98688.44;5120325;28;20031;-64
2021/09/04 10:12:10;;;;;;;3.22;0.70;;;;;;;11.28;66.27;98688.59;5122117;28;20024;-64
2021/09/04 10:14:57;;;;;;;2.35;0.80;;;;;;;11.21;66.76;98678.44;5121584;28;20041;-66
2021/09/04 10:17:45;;;;;;;1.63;1.20;;;;;;;11.50;69.77;98712.72;5118515;28;20090;-64
2021/09/04 10:20:32;;;;;;;0.70;0.70;;;;;;;11.36;67.87;98696.91;5114410;28;20043;-64
2021/09/04 10:23:29;;;;;;;1.27;0.93;;;;;;;11.49;68.14;98692.88;5120823;28;20023;-65
2021/09/04 10:26:21;;;;;;;2.95;0.98;;;;;;;11.46;65.85;98703.38;5121279;28;20023;-65
2021/09/04 10:29:07;;;;;;;1.27;0.90;;;;;;;11.65;67.35;98695.66;5122578;27;20276;-64
2021/09/04 10:31:53;;;;;;;1.88;1.10;;;;;;;11.78;68.21;98693.41;5122015;28;20023;-65
2021/09/04 10:34:41;;;;;;;2.10;1.20;;;;;;;11.48;65.05;98717.13;5122032;28;20326;-65
2021/09/04 10:37:26;;;;;;;2.45;1.20;;;;;;;11.61;64.67;98701.06;5121996;28;20030;-65
2021/09/04 10:40:13;;;;;;;3.67;1.95;;;;;;;11.78;64.95;98703.78;5111686;28;20076;-65
2021/09/04 10:42:59;;;;;;;2.30;1.20;;;;;;;11.66;65.35;98699.13;5120852;28;20042;-64
2021/09/04 10:45:49;;;;;;;1.30;1.20;;;;;;;11.45;65.19;98662.81;5120887;28;20186;-64
2021/09/04 10:48:37;;;;;;;1.55;1.40;;;;;;;11.80;64.25;98696.78;5101462;28;20031;-64
2021/09/04 10:51:47;;;;;;;1.48;1.27;;;;;;;11.79;65.04;98702.88;5098633;28;20040;-65
2021/09/04 10:54:57;;;;;;;1.70;1.38;;;;;;;11.48;64.91;98648.88;5101325;28;20028;-65
2021/09/04 10:57:47;;;;;;;4.50;1.50;;;;;;;11.51;64.51;98646.16;5100533;28;20043;-65
2021/09/04 11:00:42;;;;;;;2.58;1.08;;;;;;;11.99;62.99;98727.19;5102320;28;20312;-66
2021/09/04 11:03:41;;;;;;;3.80;0.73;;;;;;;11.67;58.00;98633.38;5090338;28;20043;-65
2021/09/04 11:06:27;;;;;;;2.30;0.60;;;;;;;12.09;58.18;98689.53;5092422;28;20027;-64
2021/09/04 11:09:13;;;;;;;0.55;0.55;;;;;;;11.97;58.02;98695.25;5098354;28;20073;-65
2021/09/04 11:12:13;;;;;;;2.28;0.80;;;;;;;11.75;57.54;98657.22;5100765;28;20020;-64
2021/09/04 11:14:59;;;;;;;0.82;0.80;;;;;;;11.97;59.76;98713.41;5101790;28;20056;-64
2021/09/04 11:17:45;;;;;;;1.48;1.05;;;;;;;11.80;60.69;98733.13;5091186;28;20047;-65
2021/09/04 11:20:31;;;;;;;2.75;1.40;;;;;;;11.58;64.39;98746.13;5099028;28;20204;-65
2021/09/04 11:23:28;;;;;;;2.45;1.00;;;;;;;11.25;65.41;98756.09;5101746;28;20024;-67
2021/09/04 11:26:14;;;;;;;10.38;6.25;;;;;;;11.16;70.15;98742.59;5100664;28;20016;-68
2021/09/04 11:29:00;;;;;;;2.58;1.15;;;;;;;10.83;71.79;98747.31;5101884;28;20054;-68
2021/09/04 11:31:51;;;;;;;3.00;1.33;;;;;;;10.48;72.50;98702.88;5099893;28;20291;-68
2021/09/04 11:34:47;;;;;;;3.42;0.95;;;;;;;10.55;72.82;98695.72;5101465;28;20024;-66
2021/09/04 11:37:36;;;;;;;2.92;1.10;;;;;;;10.90;72.76;98735.81;5089533;28;20344;-66
2021/09/04 11:40:24;;;;;;;1.50;0.98;;;;;;;11.07;76.07;98744.69;5098013;28;20228;-66
2021/09/04 11:43:13;;;;;;;0.82;0.73;;;;;;;10.96;74.99;98745.09;5103609;28;20035;-68
2021/09/04 11:46:05;;;;;;;3.28;0.77;;;;;;;11.03;73.33;98749.13;5105119;28;20024;-66
2021/09/04 11:48:53;;;;;;;3.67;0.80;;;;;;;10.86;73.87;98706.59;5124735;28;20069;-65
2021/09/04 11:51:55;;;;;;;3.30;1.10;;;;;;;11.28;74.33;98764.59;5125108;28;20035;-66
2021/09/04 11:54:40;;;;;;;5.88;1.25;;;;;;;11.42;75.70;98739.88;5106847;28;20668;-64
2021/09/04 11:57:28;;;;;;;3.88;1.50;;;;;;;11.48;73.16;98735.25;5123588;28;20198;-64
2021/09/04 12:00:22;;;;;;;2.10;1.17;;;;;;;11.19;72.20;98680.25;5123919;28;20028;-64
2021/09/04 12:03:10;;;;;;;1.88;1.00;;;;;;;11.42;71.13;98734.69;5114059;28;20024;-64
2021/09/04 12:05:56;;;;;;;1.05;1.00;;;;;;;11.62;72.43;98731.28;5108250;28;20039;-65
2021/09/04 12:08:43;;;;;;;0.82;0.80;;;;;;;11.70;70.96;98731.78;5107028;28;20020;-65
2021/09/04 12:11:29;;;;;;;3.42;1.15;;;;;;;11.77;70.63;98737.56;5124147;28;20396;-65
2021/09/04 12:14:15;;;;;;;1.95;0.90;;;;;;;11.84;70.52;98724.28;5125357;28;20074;-65
2021/09/04 12:17:01;;;;;;;3.25;1.20;;;;;;;11.88;67.98;98718.03;5104606;28;20024;-65
2021/09/04 12:19:48;;;;;;;2.63;1.10;;;;;;;11.95;69.61;98726.44;5108843;28;20212;-63
2021/09/04 12:22:34;;;;;;;3.65;1.17;;;;;;;11.80;66.08;98729.66;5124365;28;20050;-64
2021/09/04 12:25:25;;;;;;;5.45;1.20;;;;;;;11.62;66.58;98720.91;5109101;28;20107;-64
2021/09/04 12:28:13;;;;;;;3.65;1.00;;;;;;;11.43;66.58;98733.75;5121409;28;20035;-66
2021/09/04 12:31:02;;;;;;;6.30;1.02;;;;;;;11.67;68.76;98757.84;5110248;28;20035;-63
2021/09/04 12:33:50;;;;;;;2.88;1.17;;;;;;;11.67;67.48;98755.25;5125273;28;20042;-64
2021/09/04 12:36:39;;;;;;;0.95;0.85;;;;;;;11.79;67.39;98757.34;5121694;28;20099;-66
2021/09/04 12:39:28;;;;;;;3.45;0.90;;;;;;;11.83;66.77;98748.53;5123452;28;20036;-64
2021/09/04 12:42:13;;;;;;;1.83;1.10;;;;;;;11.95;67.39;98751.56;5122675;28;20024;-64
2021/09/04 12:45:19;;;;;;;6.03;1.73;;;;;;;12.07;66.45;98754.47;5121810;28;20027;-66
2021/09/04 12:48:05;;;;;;;4.32;1.10;;;;;;;12.16;66.60;98755.84;5108641;28;20107;-64
2021/09/04 12:51:11;;;;;;;0.98;0.82;;;;;;;12.15;66.51;98748.94;5124205;28;20054;-63
2021/09/04 12:54:06;;;;;;;1.40;0.90;;;;;;;12.18;66.08;98748.81;5106714;28;20064;-64
2021/09/04 12:57:03;;;;;;;2.13;1.40;;;;;;;12.05;66.01;98756.28;5118295;28;20023;-64
2021/09/04 12:59:48;;;;;;;2.17;0.80;;;;;;;12.13;64.94;98763.75;5116667;28;20095;-64
2021/09/04 13:02:39;;;;;;;4.53;1.02;;;;;;;11.87;65.27;98762.22;5115980;28;20032;-65
2021/09/04 13:05:25;;;;;;;2.60;0.88;;;;;;;12.02;66.23;98768.56;5123409;28;20035;-66
2021/09/04 13:08:10;;;;;;;0.82;0.80;;;;;;;12.04;67.34;98772.78;5113679;28;20235;-66
2021/09/04 13:10:56;;;;;;;1.73;1.10;;;;;;;11.82;68.12;98772.78;5109422;28;20019;-66